CheckWX is a tool to help pilots better visualize weather data.  It is not intended as a substitute for an official pre-flight weather briefing.

05:20:54 UTC

ESIB METAR
Såtenäs Air Base Airport
Såtenäs, Sweden
Current

31 mins ago

ESIB 200450Z AUTO 29006KT 9999 NCD 01/M00 Q1007
Observed
Feb-20 @ 04:50 UTC
Wind
  • 290° at 6 KTS
Visibility
10,000+ meters
Flight Rules
VFR
Cloud Levels
  • Clear skies
Temperature
C / 34°F
Dewpoint
C / 32°F
Humidity
93%
Altimeter
29.73" Hg
Pressure
1006.92 hPa
Previous

1 hour ago

ESIB 200420Z AUTO 29007KT 9999 NCD 01/00 Q1007
Observed
Feb-20 @ 04:20 UTC
Wind
  • 290° at 7 KTS
Visibility
10,000+ meters
Flight Rules
VFR
Cloud Levels
  • Clear skies
Temperature
C / 34°F
Dewpoint
C / 32°F
Humidity
93%
Altimeter
29.73" Hg
Pressure
1006.92 hPa
Previous

2 hours ago

ESIB 200350Z AUTO 29009KT 9999 NCD 01/00 Q1006
Observed
Feb-20 @ 03:50 UTC
Wind
  • 290° at 9 KTS
Visibility
10,000+ meters
Flight Rules
VFR
Cloud Levels
  • Clear skies
Temperature
C / 34°F
Dewpoint
C / 32°F
Humidity
93%
Altimeter
29.7" Hg
Pressure
1005.92 hPa